createdAt,value
2017-12-24T00:00:14.715Z,15.20
2017-12-24T00:02:42.134Z,15.50
2017-12-24T00:05:09.568Z,14.03
2017-12-24T00:07:37.388Z,13.47
2017-12-24T00:10:04.817Z,10.90
2017-12-24T00:12:32.597Z,13.70
2017-12-24T00:15:00.026Z,13.63
2017-12-24T00:17:27.452Z,12.17
2017-12-24T00:19:54.888Z,15.20
2017-12-24T00:22:22.321Z,14.67
2017-12-24T00:24:49.744Z,14.57
2017-12-24T00:27:17.427Z,12.23
2017-12-24T00:29:44.863Z,12.73
2017-12-24T00:32:12.288Z,13.57
2017-12-24T00:34:40.156Z,13.20
2017-12-24T00:37:07.975Z,12.67
2017-12-24T00:39:35.403Z,14.50
2017-12-24T00:42:02.879Z,11.00
2017-12-24T00:44:30.304Z,12.40
2017-12-24T00:46:57.739Z,12.20
2017-12-24T00:49:25.573Z,12.20
2017-12-24T00:51:53.003Z,15.43
2017-12-24T00:54:20.431Z,17.80
2017-12-24T00:56:47.867Z,14.60
2017-12-24T00:59:15.689Z,14.57
2017-12-24T01:01:43.144Z,14.10
2017-12-24T01:04:10.577Z,13.77
2017-12-24T01:06:38.004Z,13.20
2017-12-24T01:09:06.107Z,14.20
2017-12-24T01:11:33.543Z,14.23
2017-12-24T01:14:00.969Z,13.60
2017-12-24T01:16:28.829Z,13.57
2017-12-24T01:18:56.247Z,14.60
2017-12-24T01:21:23.684Z,13.87
2017-12-24T01:23:51.120Z,16.20
2017-12-24T01:26:18.582Z,15.30
2017-12-24T01:28:46.008Z,16.80
2017-12-24T01:31:13.833Z,11.27
2017-12-24T01:33:41.520Z,13.17
2017-12-24T01:36:08.948Z,14.43
2017-12-24T01:38:36.382Z,14.80
2017-12-24T01:41:04.631Z,14.07
2017-12-24T01:43:32.061Z,14.63
2017-12-24T01:45:59.632Z,13.17
2017-12-24T01:48:27.561Z,13.43
2017-12-24T01:50:54.988Z,13.67
2017-12-24T01:53:22.414Z,14.77
2017-12-24T01:55:50.266Z,16.10
2017-12-24T01:58:18.089Z,15.97
2017-12-24T02:00:45.515Z,17.37
2017-12-24T02:03:12.944Z,16.30
2017-12-24T02:05:40.764Z,17.53
2017-12-24T02:08:08.208Z,18.13
2017-12-24T02:10:35.642Z,17.70
2017-12-24T02:13:03.072Z,18.47
2017-12-24T02:15:31.006Z,19.07
2017-12-24T02:17:58.432Z,18.20
2017-12-24T02:20:25.865Z,19.20
2017-12-24T02:22:54.163Z,16.77
2017-12-24T02:25:21.600Z,19.67
2017-12-24T02:27:49.024Z,16.97
2017-12-24T02:30:16.852Z,16.00
2017-12-24T02:32:44.308Z,16.83
2017-12-24T02:35:11.746Z,18.40
2017-12-24T02:37:39.178Z,16.80
2017-12-24T02:40:06.629Z,17.63
2017-12-24T02:42:34.059Z,19.03
2017-12-24T02:45:01.486Z,16.57
2017-12-24T02:47:28.916Z,18.10
2017-12-24T02:49:56.339Z,16.70
2017-12-24T02:52:24.651Z,18.77
2017-12-24T02:54:52.071Z,19.30
2017-12-24T02:57:19.496Z,16.80
2017-12-24T02:59:46.951Z,18.37
2017-12-24T03:02:15.289Z,16.57
2017-12-24T03:04:42.720Z,18.87
2017-12-24T03:07:11.016Z,16.37
2017-12-24T03:09:38.447Z,15.77
2017-12-24T03:12:05.883Z,15.80
2017-12-24T03:14:33.716Z,14.77
2017-12-24T03:17:01.152Z,18.80
2017-12-24T03:19:28.571Z,12.60
2017-12-24T03:21:56.025Z,13.93
2017-12-24T03:24:23.453Z,12.87
2017-12-24T03:26:50.876Z,13.10
2017-12-24T03:29:18.324Z,13.20
2017-12-24T03:31:45.762Z,13.40
2017-12-24T03:34:13.184Z,12.73
2017-12-24T03:36:41.006Z,13.20
2017-12-24T03:39:08.441Z,12.80
2017-12-24T03:41:35.885Z,14.37
2017-12-24T03:44:03.314Z,13.57
2017-12-24T03:46:31.137Z,13.27
2017-12-24T03:48:58.572Z,14.03
2017-12-24T03:51:26.003Z,13.10
2017-12-24T03:53:53.692Z,13.37
2017-12-24T03:56:21.119Z,12.63
2017-12-24T03:58:48.543Z,13.40
2017-12-24T04:01:16.385Z,12.50
2017-12-24T04:03:43.815Z,13.53
2017-12-24T04:06:11.249Z,13.80
2017-12-24T04:08:39.036Z,9.03
2017-12-24T04:11:06.471Z,12.70
2017-12-24T04:13:33.887Z,11.53
2017-12-24T04:16:01.335Z,12.70
2017-12-24T04:18:28.775Z,11.53
2017-12-24T04:20:56.204Z,12.20
2017-12-24T04:23:23.664Z,10.80
2017-12-24T04:25:51.092Z,12.37
2017-12-24T04:28:18.515Z,12.50
2017-12-24T04:30:45.955Z,12.00
2017-12-24T04:33:13.383Z,11.43
2017-12-24T04:35:40.813Z,12.67
2017-12-24T04:38:08.258Z,11.33
2017-12-24T04:40:35.685Z,12.50
2017-12-24T04:43:03.107Z,10.00
2017-12-24T04:45:30.564Z,10.37
2017-12-24T04:47:58.001Z,11.40
2017-12-24T04:50:25.423Z,10.17
2017-12-24T04:52:53.267Z,12.00
2017-12-24T04:55:20.701Z,10.83
2017-12-24T04:57:48.122Z,11.33
2017-12-24T05:00:15.568Z,11.53
2017-12-24T05:02:42.993Z,10.80
2017-12-24T05:05:10.811Z,13.10
2017-12-24T05:07:38.255Z,12.43
2017-12-24T05:10:05.687Z,11.37
2017-12-24T05:12:33.500Z,11.93
2017-12-24T05:15:00.940Z,9.60
2017-12-24T05:17:28.363Z,9.30
2017-12-24T05:19:55.784Z,9.67
2017-12-24T05:22:23.220Z,9.13
2017-12-24T05:24:50.660Z,9.17
2017-12-24T05:27:18.085Z,8.50
2017-12-24T05:29:45.535Z,8.00
2017-12-24T05:32:12.963Z,10.20
2017-12-24T05:34:40.788Z,9.50
2017-12-24T05:37:08.228Z,8.20
2017-12-24T05:39:35.655Z,8.30
2017-12-24T05:42:03.079Z,8.30
2017-12-24T05:44:30.504Z,8.50
2017-12-24T05:46:58.157Z,6.67
2017-12-24T05:49:25.583Z,8.77
2017-12-24T05:51:53.017Z,6.40
2017-12-24T05:54:20.456Z,6.87
2017-12-24T05:56:47.886Z,6.63
2017-12-24T05:59:15.311Z,6.23
2017-12-24T06:01:42.992Z,7.10
2017-12-24T06:04:10.425Z,6.47
2017-12-24T06:06:37.852Z,7.70
2017-12-24T06:09:05.676Z,6.80
2017-12-24T06:11:33.101Z,6.17
2017-12-24T06:14:00.523Z,6.87
2017-12-24T06:16:28.366Z,8.30
2017-12-24T06:18:55.797Z,7.60
2017-12-24T06:21:23.218Z,6.37
2017-12-24T06:23:50.640Z,6.37
2017-12-24T06:26:18.063Z,7.40
2017-12-24T06:28:45.513Z,7.50
2017-12-24T06:31:12.941Z,6.70
2017-12-24T06:33:40.360Z,6.73
2017-12-24T06:36:07.792Z,7.60
2017-12-24T06:38:35.221Z,6.30
2017-12-24T06:41:02.649Z,8.50
2017-12-24T06:43:30.489Z,6.23
2017-12-24T06:45:57.916Z,6.50
2017-12-24T06:48:25.345Z,7.57
2017-12-24T06:50:52.790Z,8.33
2017-12-24T06:53:20.215Z,8.87
2017-12-24T06:55:48.036Z,9.50
2017-12-24T06:58:15.787Z,8.37
2017-12-24T07:00:43.379Z,7.73
2017-12-24T07:03:10.804Z,7.40
2017-12-24T07:05:38.559Z,9.43
2017-12-24T07:08:05.980Z,8.60
2017-12-24T07:10:33.804Z,8.50
2017-12-24T07:13:01.252Z,8.43
2017-12-24T07:15:28.678Z,6.53
2017-12-24T07:17:56.091Z,6.83
2017-12-24T07:20:24.928Z,9.07
2017-12-24T07:22:52.348Z,8.50
2017-12-24T07:25:20.191Z,7.50
2017-12-24T07:27:47.625Z,9.10
2017-12-24T07:30:15.047Z,8.10
2017-12-24T07:32:42.479Z,8.83
2017-12-24T07:35:10.296Z,8.90
2017-12-24T07:37:37.720Z,8.43
2017-12-24T07:40:05.159Z,8.70
2017-12-24T07:42:32.583Z,8.03
2017-12-24T07:45:00.013Z,6.27
2017-12-24T07:47:27.894Z,9.43
2017-12-24T07:49:55.316Z,8.50
2017-12-24T07:52:22.751Z,7.47
2017-12-24T07:54:50.284Z,8.17
2017-12-24T07:57:18.099Z,7.43
2017-12-24T07:59:45.536Z,8.10
2017-12-24T08:02:12.960Z,7.00
2017-12-24T08:04:40.775Z,9.93
2017-12-24T08:07:08.219Z,8.37
2017-12-24T08:09:35.645Z,7.27
2017-12-24T08:12:03.074Z,8.90
2017-12-24T08:14:30.504Z,8.23
2017-12-24T08:16:58.092Z,8.50
2017-12-24T08:19:25.918Z,10.10
2017-12-24T08:21:53.372Z,8.07
2017-12-24T08:24:20.805Z,7.00
2017-12-24T08:26:48.227Z,9.10
2017-12-24T08:29:16.053Z,8.20
2017-12-24T08:31:43.476Z,8.20
2017-12-24T08:34:11.258Z,8.00
2017-12-24T08:36:38.672Z,9.03
2017-12-24T08:39:06.104Z,8.53
2017-12-24T08:41:33.553Z,9.57
2017-12-24T08:44:00.980Z,8.50
2017-12-24T08:46:28.411Z,6.50
2017-12-24T08:48:56.115Z,7.37
2017-12-24T08:51:23.564Z,8.57
2017-12-24T08:53:50.996Z,7.40
2017-12-24T08:56:18.524Z,8.50
2017-12-24T08:58:45.945Z,8.23
2017-12-24T09:01:13.374Z,8.13
2017-12-24T09:03:41.216Z,7.30
2017-12-24T09:06:08.643Z,7.73
2017-12-24T09:08:36.069Z,8.30
2017-12-24T09:11:03.500Z,6.80
2017-12-24T09:13:30.920Z,8.00
2017-12-24T09:15:58.350Z,8.10
2017-12-24T09:18:26.164Z,7.23
2017-12-24T09:20:53.592Z,5.93
2017-12-24T09:23:21.035Z,6.53
2017-12-24T09:25:48.457Z,6.13
2017-12-24T09:28:15.885Z,7.23
2017-12-24T09:30:44.464Z,7.30
2017-12-24T09:33:11.897Z,7.83
2017-12-24T09:35:39.324Z,7.80
2017-12-24T09:38:07.152Z,7.10
2017-12-24T09:40:34.590Z,6.57
2017-12-24T09:43:02.029Z,8.60
2017-12-24T09:45:29.458Z,7.77
2017-12-24T09:47:56.884Z,7.93
2017-12-24T09:50:25.220Z,8.40
2017-12-24T09:52:52.652Z,7.50
2017-12-24T09:55:20.077Z,7.70
2017-12-24T09:57:47.928Z,7.93
2017-12-24T10:00:15.365Z,7.67
2017-12-24T10:02:42.798Z,7.20
2017-12-24T10:05:10.777Z,7.23
2017-12-24T10:07:38.199Z,7.10
2017-12-24T10:10:05.621Z,8.10
2017-12-24T10:12:33.336Z,7.90
2017-12-24T10:15:00.765Z,9.73
2017-12-24T10:17:28.191Z,7.93
2017-12-24T10:19:56.015Z,6.90
2017-12-24T10:22:23.446Z,7.83
2017-12-24T10:24:50.889Z,7.90
2017-12-24T10:27:18.707Z,9.13
2017-12-24T10:29:46.144Z,8.87
2017-12-24T10:32:14.628Z,8.53
2017-12-24T10:34:42.108Z,8.57
2017-12-24T10:37:09.476Z,8.90
2017-12-24T10:39:37.412Z,9.70
2017-12-24T10:42:04.862Z,9.00
2017-12-24T10:44:32.301Z,10.40
2017-12-24T10:46:59.740Z,11.07
2017-12-24T10:49:27.180Z,9.50
2017-12-24T10:51:54.611Z,9.67
2017-12-24T10:54:22.051Z,11.47
2017-12-24T10:56:49.489Z,11.17
2017-12-24T10:59:16.924Z,10.20
2017-12-24T11:01:44.355Z,12.17
2017-12-24T11:04:11.797Z,10.10
2017-12-24T11:06:39.757Z,13.63
2017-12-24T11:09:07.616Z,11.70
2017-12-24T11:11:35.043Z,12.20
2017-12-24T11:14:02.484Z,14.10
2017-12-24T11:16:30.172Z,17.30
2017-12-24T11:18:57.605Z,14.00
2017-12-24T11:21:25.042Z,14.43
2017-12-24T11:23:52.812Z,15.77
2017-12-24T11:26:20.244Z,15.80
2017-12-24T11:28:47.674Z,15.90
2017-12-24T11:31:15.501Z,15.13
2017-12-24T11:33:42.933Z,11.20
2017-12-24T11:36:10.356Z,12.77
2017-12-24T11:38:38.096Z,12.83
2017-12-24T11:41:05.520Z,11.17
2017-12-24T11:43:32.957Z,17.10
2017-12-24T11:46:00.410Z,14.57
2017-12-24T11:48:27.830Z,12.97
2017-12-24T11:50:56.321Z,14.07
2017-12-24T11:53:24.531Z,16.93
2017-12-24T11:55:51.955Z,13.30
2017-12-24T11:58:19.384Z,15.90
2017-12-24T12:00:47.251Z,12.80
2017-12-24T12:03:14.668Z,13.70
2017-12-24T12:05:42.101Z,16.03
2017-12-24T12:08:09.549Z,14.07
2017-12-24T12:10:36.988Z,13.53
2017-12-24T12:13:04.415Z,12.87
2017-12-24T12:15:31.880Z,16.07
2017-12-24T12:17:59.704Z,13.10
2017-12-24T12:20:27.140Z,14.27
2017-12-24T12:22:54.598Z,17.23
2017-12-24T12:25:22.022Z,13.90
2017-12-24T12:27:49.455Z,16.07
2017-12-24T12:30:16.908Z,13.90
2017-12-24T12:32:44.341Z,13.47
2017-12-24T12:35:11.768Z,15.13
2017-12-24T12:37:39.224Z,13.77
2017-12-24T12:40:06.766Z,12.73
2017-12-24T12:42:34.198Z,13.00
2017-12-24T12:45:02.021Z,12.67
2017-12-24T12:47:29.772Z,12.77
2017-12-24T12:49:57.208Z,12.93
2017-12-24T12:52:32.781Z,11.13
2017-12-24T12:55:02.609Z,11.37
2017-12-24T12:57:30.300Z,12.20
2017-12-24T12:59:58.179Z,9.50
2017-12-24T13:02:25.614Z,11.50
2017-12-24T13:04:53.431Z,9.97
2017-12-24T13:07:21.183Z,10.77
2017-12-24T13:09:48.633Z,9.43
2017-12-24T13:12:16.058Z,11.60
2017-12-24T13:14:43.517Z,11.73
2017-12-24T13:17:10.944Z,9.97
2017-12-24T13:19:38.381Z,9.87
2017-12-24T13:22:05.828Z,9.33
2017-12-24T13:24:33.296Z,10.23
2017-12-24T13:27:00.737Z,10.23
2017-12-24T13:29:28.396Z,11.43
2017-12-24T13:31:55.841Z,11.23
2017-12-24T13:34:23.263Z,8.10
2017-12-24T13:36:50.704Z,10.10
2017-12-24T13:39:18.528Z,10.60
2017-12-24T13:41:45.995Z,11.37
2017-12-24T13:44:13.441Z,9.43
2017-12-24T13:46:40.872Z,8.80
2017-12-24T13:49:08.320Z,9.37
2017-12-24T13:51:35.770Z,11.37
2017-12-24T13:54:03.196Z,10.73
2017-12-24T13:56:31.011Z,8.80
2017-12-24T13:58:58.448Z,9.90
2017-12-24T14:01:26.152Z,9.63
2017-12-24T14:03:53.696Z,9.93
2017-12-24T14:06:21.119Z,10.03
2017-12-24T14:08:48.547Z,9.50
2017-12-24T14:11:16.408Z,10.10
2017-12-24T14:13:44.234Z,10.30
2017-12-24T14:16:11.675Z,9.27
2017-12-24T14:18:39.121Z,8.50
2017-12-24T14:21:06.554Z,11.83
2017-12-24T14:23:33.980Z,9.10
2017-12-24T14:26:01.832Z,11.20
2017-12-24T14:28:29.256Z,10.67
2017-12-24T14:30:57.381Z,10.80
2017-12-24T14:33:25.216Z,9.30
2017-12-24T14:35:52.664Z,9.43
2017-12-24T14:38:20.722Z,10.47
2017-12-24T14:40:48.138Z,9.50
2017-12-24T14:43:15.580Z,9.63
2017-12-24T14:45:43.401Z,10.00
2017-12-24T14:48:10.830Z,9.67
2017-12-24T14:50:38.283Z,9.30
2017-12-24T14:53:05.704Z,9.00
2017-12-24T14:55:33.524Z,8.77
2017-12-24T14:58:00.952Z,8.80
2017-12-24T15:00:28.380Z,10.37
2017-12-24T15:02:56.201Z,10.60
2017-12-24T15:05:23.635Z,9.73
2017-12-24T15:07:51.096Z,9.93
2017-12-24T15:10:18.523Z,10.20
2017-12-24T15:12:45.943Z,7.77
2017-12-24T15:15:13.780Z,9.60
2017-12-24T15:17:41.210Z,9.13
2017-12-24T15:20:08.648Z,10.10
2017-12-24T15:22:36.396Z,9.63
2017-12-24T15:25:04.216Z,8.67
2017-12-24T15:27:31.640Z,9.30
2017-12-24T15:29:59.080Z,8.20
2017-12-24T15:32:26.502Z,9.70
2017-12-24T15:34:53.928Z,10.70
2017-12-24T15:37:21.462Z,9.90
2017-12-24T15:39:48.892Z,10.37
2017-12-24T15:42:16.325Z,8.90
2017-12-24T15:44:43.765Z,10.70
2017-12-24T15:47:11.194Z,9.63
2017-12-24T15:49:38.615Z,10.20
2017-12-24T15:52:07.742Z,10.53
2017-12-24T15:54:35.169Z,10.07
2017-12-24T15:57:02.593Z,10.50
2017-12-24T15:59:31.123Z,9.20
2017-12-24T16:01:58.561Z,13.40
2017-12-24T16:04:25.984Z,10.13
2017-12-24T16:06:53.808Z,10.60
2017-12-24T16:09:21.255Z,10.03
2017-12-24T16:11:48.691Z,11.37
2017-12-24T16:14:16.112Z,11.00
2017-12-24T16:16:43.941Z,11.33
2017-12-24T16:19:11.368Z,10.80
2017-12-24T16:21:38.828Z,9.67
2017-12-24T16:24:06.253Z,9.20
2017-12-24T16:26:34.083Z,10.17
2017-12-24T16:29:01.532Z,10.57
2017-12-24T16:31:28.956Z,10.20
2017-12-24T16:33:56.392Z,9.67
2017-12-24T16:36:23.827Z,9.80
2017-12-24T16:38:51.665Z,9.90
2017-12-24T16:41:19.089Z,10.87
2017-12-24T16:43:46.517Z,9.47
2017-12-24T16:46:13.948Z,9.47
2017-12-24T16:48:41.775Z,10.10
2017-12-24T16:51:09.195Z,9.00
2017-12-24T16:53:36.627Z,9.40
2017-12-24T16:56:04.461Z,10.07
2017-12-24T16:58:31.882Z,9.87
2017-12-24T17:00:59.308Z,9.90
2017-12-24T17:03:27.152Z,9.47
2017-12-24T17:05:54.572Z,8.83
2017-12-24T17:08:21.994Z,9.20
2017-12-24T17:10:49.419Z,8.60
2017-12-24T17:13:17.237Z,10.40
2017-12-24T17:15:44.995Z,9.93
2017-12-24T17:18:12.412Z,8.90
2017-12-24T17:20:40.233Z,9.70
2017-12-24T17:23:07.672Z,9.67
2017-12-24T17:25:35.103Z,11.50
2017-12-24T17:28:02.524Z,10.07
2017-12-24T17:30:29.951Z,9.07
2017-12-24T17:32:57.379Z,10.63
2017-12-24T17:35:24.836Z,8.90
2017-12-24T17:37:52.251Z,9.97
2017-12-24T17:40:20.067Z,9.77
2017-12-24T17:42:47.512Z,10.00
2017-12-24T17:45:14.941Z,9.30
2017-12-24T17:47:42.360Z,9.37
2017-12-24T17:50:09.807Z,10.80
2017-12-24T17:52:37.247Z,10.97
2017-12-24T17:55:04.664Z,9.17
2017-12-24T17:57:32.091Z,8.60
2017-12-24T17:59:59.916Z,9.83
2017-12-24T18:02:27.667Z,10.97
2017-12-24T18:04:55.096Z,8.83
2017-12-24T18:07:22.520Z,11.87
2017-12-24T18:09:50.241Z,12.20
2017-12-24T18:12:17.881Z,9.40
2017-12-24T18:14:45.303Z,11.57
2017-12-24T18:17:13.136Z,11.10
2017-12-24T18:19:40.562Z,9.07
2017-12-24T18:22:07.997Z,10.67
2017-12-24T18:24:35.826Z,9.70
2017-12-24T18:27:03.255Z,10.07
2017-12-24T18:29:30.681Z,10.50
2017-12-24T18:31:58.107Z,10.10
2017-12-24T18:34:25.926Z,10.87
2017-12-24T18:36:53.367Z,11.30
2017-12-24T18:39:20.801Z,10.57
2017-12-24T18:41:48.232Z,11.80
2017-12-24T18:44:16.089Z,10.97
2017-12-24T18:46:43.513Z,10.80
2017-12-24T18:49:10.935Z,10.40
2017-12-24T18:51:38.364Z,11.30
2017-12-24T18:54:06.187Z,11.70
2017-12-24T18:56:33.616Z,10.60
2017-12-24T18:59:01.064Z,10.80
2017-12-24T19:01:28.484Z,12.03
2017-12-24T19:03:56.308Z,11.83
2017-12-24T19:06:23.763Z,11.90
2017-12-24T19:08:51.199Z,10.37
2017-12-24T19:11:18.632Z,11.70
2017-12-24T19:13:46.065Z,12.20
2017-12-24T19:16:13.905Z,12.60
2017-12-24T19:18:41.332Z,12.73
2017-12-24T19:21:08.765Z,11.03
2017-12-24T19:23:36.208Z,12.77
2017-12-24T19:26:04.032Z,13.93
2017-12-24T19:28:31.464Z,13.37
2017-12-24T19:30:59.152Z,13.43
2017-12-24T19:33:26.590Z,12.27
2017-12-24T19:35:54.026Z,14.17
2017-12-24T19:38:21.452Z,13.83
2017-12-24T19:40:48.885Z,15.67
2017-12-24T19:43:16.509Z,14.97
2017-12-24T19:45:43.932Z,14.70
2017-12-24T19:48:11.361Z,14.33
2017-12-24T19:50:39.292Z,13.57
2017-12-24T19:53:06.721Z,15.20
2017-12-24T19:55:34.155Z,14.50
2017-12-24T19:58:01.595Z,13.00
2017-12-24T20:00:29.420Z,16.40
2017-12-24T20:02:56.850Z,14.80
2017-12-24T20:05:24.275Z,16.10
2017-12-24T20:07:52.121Z,13.67
2017-12-24T20:10:19.560Z,14.20
2017-12-24T20:12:46.984Z,12.47
2017-12-24T20:15:14.536Z,12.33
2017-12-24T20:17:41.940Z,12.00
2017-12-24T20:20:09.368Z,13.83
2017-12-24T20:22:36.797Z,15.00
2017-12-24T20:25:04.242Z,13.10
2017-12-24T20:27:31.664Z,13.20
2017-12-24T20:29:59.488Z,15.93
2017-12-24T20:32:27.026Z,13.00
2017-12-24T20:34:54.450Z,12.60
2017-12-24T20:37:22.272Z,13.20
2017-12-24T20:39:49.709Z,13.10
2017-12-24T20:42:17.141Z,11.93
2017-12-24T20:44:44.688Z,12.93
2017-12-24T20:47:12.111Z,12.83
2017-12-24T20:49:39.548Z,14.37
2017-12-24T20:52:06.992Z,12.27
2017-12-24T20:54:34.415Z,10.63
2017-12-24T20:57:01.872Z,12.80
2017-12-24T20:59:29.324Z,12.27
2017-12-24T21:01:56.743Z,13.10
2017-12-24T21:04:24.176Z,12.20
2017-12-24T21:06:51.708Z,14.50
2017-12-24T21:09:19.144Z,12.70
2017-12-24T21:11:46.624Z,14.83
2017-12-24T21:14:14.414Z,14.20
2017-12-24T21:16:41.845Z,13.87
2017-12-24T21:19:09.269Z,14.67
2017-12-24T21:21:36.722Z,15.80
2017-12-24T21:24:04.150Z,13.23
2017-12-24T21:26:31.576Z,15.80
2017-12-24T21:28:59.020Z,15.10
2017-12-24T21:31:26.449Z,14.70
2017-12-24T21:33:53.872Z,12.60
2017-12-24T21:36:21.891Z,14.80
2017-12-24T21:38:49.322Z,15.30
2017-12-24T21:41:16.748Z,14.80
2017-12-24T21:43:44.204Z,13.90
2017-12-24T21:46:12.033Z,17.07
2017-12-24T21:48:39.460Z,15.27
2017-12-24T21:51:06.904Z,16.50
2017-12-24T21:53:34.334Z,17.70
2017-12-24T21:56:02.161Z,15.10
2017-12-24T21:58:29.612Z,17.43
2017-12-24T22:00:57.047Z,16.73
2017-12-24T22:03:24.475Z,16.63
2017-12-24T22:05:52.292Z,14.60
2017-12-24T22:08:19.719Z,15.20
2017-12-24T22:10:47.383Z,16.03
2017-12-24T22:13:14.822Z,17.10
2017-12-24T22:15:42.244Z,19.53
2017-12-24T22:18:10.080Z,14.10
2017-12-24T22:20:37.517Z,16.07
2017-12-24T22:23:04.948Z,16.30
2017-12-24T22:25:32.385Z,15.57
2017-12-24T22:28:00.205Z,13.37
2017-12-24T22:30:29.557Z,17.47
2017-12-24T22:32:56.987Z,16.90
2017-12-24T22:35:24.411Z,12.70
2017-12-24T22:37:51.838Z,12.43
2017-12-24T22:40:19.260Z,12.23
2017-12-24T22:42:47.088Z,11.97
2017-12-24T22:45:14.823Z,12.70
2017-12-24T22:47:42.247Z,11.50
2017-12-24T22:50:10.075Z,10.30
2017-12-24T22:52:37.527Z,10.60
2017-12-24T22:55:04.951Z,8.03
2017-12-24T22:57:32.373Z,8.43
2017-12-24T23:00:01.020Z,7.03
2017-12-24T23:02:28.441Z,7.90
2017-12-24T23:04:55.855Z,7.70
2017-12-24T23:07:23.694Z,7.17
2017-12-24T23:09:51.115Z,6.90
2017-12-24T23:12:18.539Z,7.10
2017-12-24T23:14:45.970Z,6.10
2017-12-24T23:17:13.393Z,6.47
2017-12-24T23:19:40.819Z,4.43
2017-12-24T23:22:08.266Z,5.73
2017-12-24T23:24:35.691Z,5.20
2017-12-24T23:27:03.112Z,5.50
2017-12-24T23:29:30.754Z,6.20
2017-12-24T23:31:58.167Z,5.43
2017-12-24T23:34:25.991Z,5.00
2017-12-24T23:36:53.433Z,5.40
2017-12-24T23:39:20.853Z,6.03
2017-12-24T23:41:48.667Z,5.97
2017-12-24T23:44:16.106Z,5.27
2017-12-24T23:46:43.516Z,6.87
2017-12-24T23:49:11.346Z,6.00
2017-12-24T23:51:38.766Z,5.70
2017-12-24T23:54:06.195Z,6.07
2017-12-24T23:56:34.029Z,7.03
2017-12-24T23:59:01.448Z,7.03
